sensor_id;sensor_type;location;lat;lon;timestamp;pressure;altitude;pressure_sealevel;temperature;humidity
27202;BME280;14717;46.924;15.474;2023-11-22T00:00:35;97638.47;;;6.27;100.00
27202;BME280;14717;46.924;15.474;2023-11-22T00:03:00;97648.03;;;6.24;100.00
27202;BME280;14717;46.924;15.474;2023-11-22T00:05:25;97639.00;;;6.29;100.00
27202;BME280;14717;46.924;15.474;2023-11-22T00:07:51;97643.13;;;6.21;100.00
27202;BME280;14717;46.924;15.474;2023-11-22T00:10:16;97637.66;;;6.26;100.00
27202;BME280;14717;46.924;15.474;2023-11-22T00:12:42;97641.69;;;6.09;100.00
27202;BME280;14717;46.924;15.474;2023-11-22T00:15:07;97652.41;;;6.15;100.00
27202;BME280;14717;46.924;15.474;2023-11-22T00:17:35;97650.22;;;6.17;100.00
27202;BME280;14717;46.924;15.474;2023-11-22T00:20:00;97642.53;;;6.14;100.00
27202;BME280;14717;46.924;15.474;2023-11-22T00:22:33;97649.59;;;5.95;100.00
27202;BME280;14717;46.924;15.474;2023-11-22T00:24:59;97651.75;;;5.84;100.00
27202;BME280;14717;46.924;15.474;2023-11-22T00:27:26;97646.03;;;5.90;100.00
27202;BME280;14717;46.924;15.474;2023-11-22T00:29:52;97650.72;;;6.04;100.00
27202;BME280;14717;46.924;15.474;2023-11-22T00:32:17;97645.19;;;5.90;100.00
27202;BME280;14717;46.924;15.474;2023-11-22T00:34:43;97649.31;;;5.92;100.00
27202;BME280;14717;46.924;15.474;2023-11-22T00:37:08;97641.91;;;5.93;100.00
27202;BME280;14717;46.924;15.474;2023-11-22T00:39:33;97635.31;;;5.84;100.00
27202;BME280;14717;46.924;15.474;2023-11-22T00:41:59;97649.56;;;5.86;100.00
27202;BME280;14717;46.924;15.474;2023-11-22T00:44:24;97652.88;;;5.93;100.00
27202;BME280;14717;46.924;15.474;2023-11-22T00:46:49;97654.78;;;5.82;100.00
27202;BME280;14717;46.924;15.474;2023-11-22T00:49:15;97654.78;;;5.87;100.00
27202;BME280;14717;46.924;15.474;2023-11-22T00:51:40;97649.56;;;5.86;100.00
27202;BME280;14717;46.924;15.474;2023-11-22T00:54:06;97657.16;;;5.69;100.00
27202;BME280;14717;46.924;15.474;2023-11-22T00:56:32;97664.59;;;5.78;100.00
27202;BME280;14717;46.924;15.474;2023-11-22T00:58:57;97660.78;;;5.79;100.00
27202;BME280;14717;46.924;15.474;2023-11-22T01:01:27;97662.03;;;5.67;100.00
27202;BME280;14717;46.924;15.474;2023-11-22T01:03:54;97659.88;;;5.64;100.00
27202;BME280;14717;46.924;15.474;2023-11-22T01:06:19;97659.00;;;5.63;100.00
27202;BME280;14717;46.924;15.474;2023-11-22T01:08:44;97667.91;;;5.80;100.00
27202;BME280;14717;46.924;15.474;2023-11-22T01:11:10;97673.66;;;5.79;100.00
27202;BME280;14717;46.924;15.474;2023-11-22T01:13:35;97673.66;;;5.79;100.00
27202;BME280;14717;46.924;15.474;2023-11-22T01:16:11;97675.06;;;5.86;100.00
27202;BME280;14717;46.924;15.474;2023-11-22T01:18:36;97669.44;;;5.66;100.00
27202;BME280;14717;46.924;15.474;2023-11-22T01:21:02;97667.25;;;5.68;100.00
27202;BME280;14717;46.924;15.474;2023-11-22T01:23:29;97677.22;;;5.33;100.00
27202;BME280;14717;46.924;15.474;2023-11-22T01:25:55;97669.88;;;5.44;100.00
27202;BME280;14717;46.924;15.474;2023-11-22T01:28:20;97680.09;;;5.58;100.00
27202;BME280;14717;46.924;15.474;2023-11-22T01:30:45;97681.63;;;5.39;100.00
27202;BME280;14717;46.924;15.474;2023-11-22T01:33:11;97679.47;;;5.41;100.00
27202;BME280;14717;46.924;15.474;2023-11-22T01:35:37;97684.69;;;5.48;100.00
27202;BME280;14717;46.924;15.474;2023-11-22T01:38:03;97688.47;;;5.37;100.00
27202;BME280;14717;46.924;15.474;2023-11-22T01:40:32;97674.59;;;5.12;100.00
27202;BME280;14717;46.924;15.474;2023-11-22T01:42:58;97677.44;;;5.27;100.00
27202;BME280;14717;46.924;15.474;2023-11-22T01:45:23;97683.47;;;5.29;100.00
27202;BME280;14717;46.924;15.474;2023-11-22T01:47:50;97677.16;;;5.23;100.00
27202;BME280;14717;46.924;15.474;2023-11-22T01:50:16;97680.66;;;5.19;100.00
27202;BME280;14717;46.924;15.474;2023-11-22T01:52:41;97683.22;;;5.30;100.00
27202;BME280;14717;46.924;15.474;2023-11-22T01:55:08;97681.06;;;5.37;100.00
27202;BME280;14717;46.924;15.474;2023-11-22T01:57:34;97685.25;;;5.49;100.00
27202;BME280;14717;46.924;15.474;2023-11-22T02:00:01;97685.19;;;5.40;100.00
27202;BME280;14717;46.924;15.474;2023-11-22T02:02:29;97685.22;;;5.45;100.00
27202;BME280;14717;46.924;15.474;2023-11-22T02:04:54;97682.50;;;5.49;100.00
27202;BME280;14717;46.924;15.474;2023-11-22T02:07:20;97687.97;;;5.45;100.00
27202;BME280;14717;46.924;15.474;2023-11-22T02:09:46;97683.81;;;5.42;100.00
27202;BME280;14717;46.924;15.474;2023-11-22T02:12:11;97696.66;;;5.37;100.00
27202;BME280;14717;46.924;15.474;2023-11-22T02:14:37;97690.88;;;5.28;100.00
27202;BME280;14717;46.924;15.474;2023-11-22T02:17:03;97697.03;;;5.09;100.00
27202;BME280;14717;46.924;15.474;2023-11-22T02:19:28;97692.50;;;4.88;100.00
27202;BME280;14717;46.924;15.474;2023-11-22T02:21:55;97693.56;;;4.87;100.00
27202;BME280;14717;46.924;15.474;2023-11-22T02:24:21;97697.28;;;4.76;100.00
27202;BME280;14717;46.924;15.474;2023-11-22T02:26:46;97696.84;;;4.89;100.00
27202;BME280;14717;46.924;15.474;2023-11-22T02:29:12;97700.16;;;4.91;100.00
27202;BME280;14717;46.924;15.474;2023-11-22T02:31:40;97702.97;;;5.01;100.00
27202;BME280;14717;46.924;15.474;2023-11-22T02:34:06;97700.53;;;4.68;100.00
27202;BME280;14717;46.924;15.474;2023-11-22T02:36:31;97700.78;;;4.41;100.00
27202;BME280;14717;46.924;15.474;2023-11-22T02:38:57;97696.59;;;4.60;100.00
27202;BME280;14717;46.924;15.474;2023-11-22T02:41:23;97704.97;;;4.79;100.00
27202;BME280;14717;46.924;15.474;2023-11-22T02:43:50;97696.78;;;4.79;100.00
27202;BME280;14717;46.924;15.474;2023-11-22T02:46:15;97704.44;;;4.77;100.00
27202;BME280;14717;46.924;15.474;2023-11-22T02:48:41;97700.56;;;4.73;100.00
27202;BME280;14717;46.924;15.474;2023-11-22T02:51:06;97710.31;;;4.64;100.00
27202;BME280;14717;46.924;15.474;2023-11-22T02:53:32;97711.88;;;4.56;100.00
27202;BME280;14717;46.924;15.474;2023-11-22T02:56:00;97706.81;;;4.43;100.00
27202;BME280;14717;46.924;15.474;2023-11-22T02:58:30;97716.41;;;4.19;100.00
27202;BME280;14717;46.924;15.474;2023-11-22T03:00:56;97717.75;;;4.17;100.00
27202;BME280;14717;46.924;15.474;2023-11-22T03:03:22;97718.06;;;4.20;100.00
27202;BME280;14717;46.924;15.474;2023-11-22T03:05:49;97722.19;;;4.22;100.00
27202;BME280;14717;46.924;15.474;2023-11-22T03:08:15;97720.53;;;4.22;100.00
27202;BME280;14717;46.924;15.474;2023-11-22T03:10:41;97719.03;;;4.35;100.00
27202;BME280;14717;46.924;15.474;2023-11-22T03:13:07;97722.31;;;4.59;100.00
27202;BME280;14717;46.924;15.474;2023-11-22T03:15:34;97720.91;;;4.56;100.00
27202;BME280;14717;46.924;15.474;2023-11-22T03:17:59;97718.03;;;4.41;100.00
27202;BME280;14717;46.924;15.474;2023-11-22T03:20:25;97719.81;;;4.31;100.00
27202;BME280;14717;46.924;15.474;2023-11-22T03:22:50;97723.34;;;4.53;100.00
27202;BME280;14717;46.924;15.474;2023-11-22T03:25:16;97723.84;;;4.50;100.00
27202;BME280;14717;46.924;15.474;2023-11-22T03:27:41;97731.88;;;4.35;100.00
27202;BME280;14717;46.924;15.474;2023-11-22T03:30:07;97731.16;;;4.18;100.00
27202;BME280;14717;46.924;15.474;2023-11-22T03:32:40;97736.84;;;4.38;100.00
27202;BME280;14717;46.924;15.474;2023-11-22T03:35:06;97737.97;;;4.42;100.00
27202;BME280;14717;46.924;15.474;2023-11-22T03:37:32;97746.97;;;4.37;100.00
27202;BME280;14717;46.924;15.474;2023-11-22T03:39:58;97745.81;;;4.33;100.00
27202;BME280;14717;46.924;15.474;2023-11-22T03:42:23;97756.25;;;4.15;100.00
27202;BME280;14717;46.924;15.474;2023-11-22T03:44:49;97750.84;;;4.20;100.00
27202;BME280;14717;46.924;15.474;2023-11-22T03:47:15;97763.69;;;4.20;100.00
27202;BME280;14717;46.924;15.474;2023-11-22T03:49:40;97759.63;;;4.22;100.00
27202;BME280;14717;46.924;15.474;2023-11-22T03:52:06;97766.94;;;4.17;100.00
27202;BME280;14717;46.924;15.474;2023-11-22T03:54:33;97768.53;;;4.13;100.00
27202;BME280;14717;46.924;15.474;2023-11-22T03:56:58;97777.72;;;3.85;100.00
27202;BME280;14717;46.924;15.474;2023-11-22T03:59:24;97774.69;;;3.82;100.00
27202;BME280;14717;46.924;15.474;2023-11-22T04:01:49;97781.63;;;3.89;100.00
27202;BME280;14717;46.924;15.474;2023-11-22T04:04:16;97781.91;;;4.09;100.00
27202;BME280;14717;46.924;15.474;2023-11-22T04:06:41;97784.16;;;4.17;100.00
27202;BME280;14717;46.924;15.474;2023-11-22T04:09:07;97781.72;;;4.21;100.00
27202;BME280;14717;46.924;15.474;2023-11-22T04:11:33;97789.19;;;4.25;100.00
27202;BME280;14717;46.924;15.474;2023-11-22T04:13:59;97797.38;;;4.25;100.00
27202;BME280;14717;46.924;15.474;2023-11-22T04:16:25;97784.22;;;4.22;100.00
27202;BME280;14717;46.924;15.474;2023-11-22T04:18:50;97788.03;;;4.00;100.00
27202;BME280;14717;46.924;15.474;2023-11-22T04:21:15;97795.50;;;4.04;100.00
27202;BME280;14717;46.924;15.474;2023-11-22T04:23:41;97795.28;;;3.89;100.00
27202;BME280;14717;46.924;15.474;2023-11-22T04:26:10;97799.69;;;3.74;100.00
27202;BME280;14717;46.924;15.474;2023-11-22T04:28:35;97802.31;;;3.85;100.00
27202;BME280;14717;46.924;15.474;2023-11-22T04:31:01;97816.13;;;3.95;100.00
27202;BME280;14717;46.924;15.474;2023-11-22T04:33:26;97812.19;;;3.86;100.00
27202;BME280;14717;46.924;15.474;2023-11-22T04:35:55;97824.84;;;3.76;100.00
27202;BME280;14717;46.924;15.474;2023-11-22T04:38:20;97813.09;;;3.76;100.00
27202;BME280;14717;46.924;15.474;2023-11-22T04:40:45;97814.41;;;3.89;100.00
27202;BME280;14717;46.924;15.474;2023-11-22T04:43:11;97838.41;;;3.87;100.00
27202;BME280;14717;46.924;15.474;2023-11-22T04:45:36;97832.03;;;3.82;100.00
27202;BME280;14717;46.924;15.474;2023-11-22T04:48:02;97842.72;;;3.83;100.00
27202;BME280;14717;46.924;15.474;2023-11-22T04:50:28;97844.88;;;3.81;100.00
27202;BME280;14717;46.924;15.474;2023-11-22T04:52:53;97856.00;;;3.42;100.00
27202;BME280;14717;46.924;15.474;2023-11-22T04:55:19;97848.47;;;3.33;100.00
27202;BME280;14717;46.924;15.474;2023-11-22T04:57:47;97856.97;;;3.53;100.00
27202;BME280;14717;46.924;15.474;2023-11-22T05:00:13;97854.41;;;3.63;100.00
27202;BME280;14717;46.924;15.474;2023-11-22T05:02:38;97858.00;;;3.63;100.00
27202;BME280;14717;46.924;15.474;2023-11-22T05:05:05;97855.06;;;3.70;100.00
27202;BME280;14717;46.924;15.474;2023-11-22T05:07:30;97863.53;;;3.68;100.00
27202;BME280;14717;46.924;15.474;2023-11-22T05:09:56;97866.25;;;3.68;100.00
27202;BME280;14717;46.924;15.474;2023-11-22T05:12:21;97869.72;;;3.47;100.00
27202;BME280;14717;46.924;15.474;2023-11-22T05:14:46;97867.56;;;3.49;100.00
27202;BME280;14717;46.924;15.474;2023-11-22T05:17:12;97868.91;;;3.47;100.00
27202;BME280;14717;46.924;15.474;2023-11-22T05:19:38;97876.84;;;3.32;100.00
27202;BME280;14717;46.924;15.474;2023-11-22T05:22:03;97876.81;;;3.16;100.00
27202;BME280;14717;46.924;15.474;2023-11-22T05:24:29;97876.81;;;2.99;100.00
27202;BME280;14717;46.924;15.474;2023-11-22T05:26:54;97881.22;;;2.89;100.00
27202;BME280;14717;46.924;15.474;2023-11-22T05:29:19;97892.06;;;3.00;100.00
27202;BME280;14717;46.924;15.474;2023-11-22T05:31:45;97886.84;;;2.83;100.00
27202;BME280;14717;46.924;15.474;2023-11-22T05:34:10;97899.38;;;2.56;100.00
27202;BME280;14717;46.924;15.474;2023-11-22T05:36:35;97895.97;;;2.49;100.00
27202;BME280;14717;46.924;15.474;2023-11-22T05:39:01;97893.41;;;2.70;100.00
27202;BME280;14717;46.924;15.474;2023-11-22T05:41:28;97899.06;;;2.41;100.00
27202;BME280;14717;46.924;15.474;2023-11-22T05:43:53;97914.88;;;2.16;100.00
27202;BME280;14717;46.924;15.474;2023-11-22T05:46:20;97922.00;;;2.06;100.00
27202;BME280;14717;46.924;15.474;2023-11-22T05:48:50;97917.72;;;1.99;100.00
27202;BME280;14717;46.924;15.474;2023-11-22T05:51:16;97918.34;;;2.01;100.00
27202;BME280;14717;46.924;15.474;2023-11-22T05:53:42;97918.81;;;2.09;100.00
27202;BME280;14717;46.924;15.474;2023-11-22T05:56:07;97928.59;;;2.10;100.00
27202;BME280;14717;46.924;15.474;2023-11-22T05:58:34;97940.72;;;2.14;100.00
27202;BME280;14717;46.924;15.474;2023-11-22T06:01:02;97936.66;;;2.16;100.00
27202;BME280;14717;46.924;15.474;2023-11-22T06:03:27;97940.94;;;2.12;100.00
27202;BME280;14717;46.924;15.474;2023-11-22T06:05:53;97939.25;;;2.23;100.00
27202;BME280;14717;46.924;15.474;2023-11-22T06:08:18;97953.13;;;2.21;100.00
27202;BME280;14717;46.924;15.474;2023-11-22T06:10:44;97960.59;;;2.14;100.00
27202;BME280;14717;46.924;15.474;2023-11-22T06:13:09;97964.13;;;2.38;100.00
27202;BME280;14717;46.924;15.474;2023-11-22T06:15:35;97964.59;;;2.23;100.00
27202;BME280;14717;46.924;15.474;2023-11-22T06:18:01;97980.00;;;2.07;100.00
27202;BME280;14717;46.924;15.474;2023-11-22T06:20:26;97978.38;;;2.17;100.00
27202;BME280;14717;46.924;15.474;2023-11-22T06:22:52;97991.72;;;2.30;100.00
27202;BME280;14717;46.924;15.474;2023-11-22T06:25:17;97984.63;;;2.40;100.00
27202;BME280;14717;46.924;15.474;2023-11-22T06:27:43;97980.34;;;2.55;100.00
27202;BME280;14717;46.924;15.474;2023-11-22T06:30:08;97991.25;;;2.44;100.00
27202;BME280;14717;46.924;15.474;2023-11-22T06:32:37;97987.69;;;2.55;100.00
27202;BME280;14717;46.924;15.474;2023-11-22T06:35:02;97994.09;;;2.49;100.00
27202;BME280;14717;46.924;15.474;2023-11-22T06:37:28;98008.53;;;2.38;100.00
27202;BME280;14717;46.924;15.474;2023-11-22T06:39:53;98015.06;;;2.49;100.00
27202;BME280;14717;46.924;15.474;2023-11-22T06:42:19;98013.28;;;2.54;100.00
27202;BME280;14717;46.924;15.474;2023-11-22T06:44:47;98019.06;;;2.57;100.00
27202;BME280;14717;46.924;15.474;2023-11-22T06:47:18;98023.00;;;2.50;100.00
27202;BME280;14717;46.924;15.474;2023-11-22T06:49:43;98031.53;;;2.65;100.00
27202;BME280;14717;46.924;15.474;2023-11-22T06:52:09;98036.97;;;2.65;100.00
27202;BME280;14717;46.924;15.474;2023-11-22T06:54:34;98047.41;;;2.68;100.00
27202;BME280;14717;46.924;15.474;2023-11-22T06:57:02;98056.41;;;2.80;100.00
27202;BME280;14717;46.924;15.474;2023-11-22T06:59:28;98055.09;;;2.82;100.00
27202;BME280;14717;46.924;15.474;2023-11-22T07:01:53;98053.44;;;2.81;100.00
27202;BME280;14717;46.924;15.474;2023-11-22T07:04:18;98061.16;;;2.73;100.00
27202;BME280;14717;46.924;15.474;2023-11-22T07:06:44;98063.16;;;2.77;100.00
27202;BME280;14717;46.924;15.474;2023-11-22T07:09:09;98060.56;;;2.59;100.00
27202;BME280;14717;46.924;15.474;2023-11-22T07:11:35;98053.34;;;2.53;100.00
27202;BME280;14717;46.924;15.474;2023-11-22T07:14:02;98059.38;;;2.44;100.00
27202;BME280;14717;46.924;15.474;2023-11-22T07:16:29;98053.47;;;2.36;100.00
27202;BME280;14717;46.924;15.474;2023-11-22T07:18:54;98073.94;;;2.38;100.00
27202;BME280;14717;46.924;15.474;2023-11-22T07:21:20;98076.44;;;2.51;100.00
27202;BME280;14717;46.924;15.474;2023-11-22T07:23:48;98057.81;;;2.59;100.00
27202;BME280;14717;46.924;15.474;2023-11-22T07:26:13;98066.16;;;2.53;100.00
27202;BME280;14717;46.924;15.474;2023-11-22T07:28:42;98071.47;;;2.48;100.00
27202;BME280;14717;46.924;15.474;2023-11-22T07:31:08;98077.88;;;2.42;100.00
27202;BME280;14717;46.924;15.474;2023-11-22T07:33:34;98080.25;;;2.39;100.00
27202;BME280;14717;46.924;15.474;2023-11-22T07:36:00;98078.09;;;2.29;100.00
27202;BME280;14717;46.924;15.474;2023-11-22T07:38:25;98086.19;;;2.58;100.00
27202;BME280;14717;46.924;15.474;2023-11-22T07:40:51;98096.50;;;2.68;100.00
27202;BME280;14717;46.924;15.474;2023-11-22T07:43:16;98096.22;;;2.81;100.00
27202;BME280;14717;46.924;15.474;2023-11-22T07:45:42;98096.78;;;3.05;100.00
27202;BME280;14717;46.924;15.474;2023-11-22T07:48:10;98107.91;;;3.15;100.00
27202;BME280;14717;46.924;15.474;2023-11-22T07:50:37;98109.47;;;3.23;100.00
27202;BME280;14717;46.924;15.474;2023-11-22T07:53:03;98108.34;;;3.35;100.00
27202;BME280;14717;46.924;15.474;2023-11-22T07:55:30;98112.94;;;3.46;100.00
27202;BME280;14717;46.924;15.474;2023-11-22T07:57:55;98114.13;;;3.50;100.00
27202;BME280;14717;46.924;15.474;2023-11-22T08:00:21;98114.22;;;3.55;100.00
27202;BME280;14717;46.924;15.474;2023-11-22T08:02:48;98123.03;;;3.57;100.00
27202;BME280;14717;46.924;15.474;2023-11-22T08:05:14;98124.63;;;3.69;100.00
27202;BME280;14717;46.924;15.474;2023-11-22T08:07:43;98123.31;;;3.72;100.00
27202;BME280;14717;46.924;15.474;2023-11-22T08:10:11;98131.00;;;3.75;100.00
27202;BME280;14717;46.924;15.474;2023-11-22T08:12:48;98132.44;;;4.05;100.00
27202;BME280;14717;46.924;15.474;2023-11-22T08:15:16;98126.91;;;4.16;100.00
27202;BME280;14717;46.924;15.474;2023-11-22T08:17:43;98124.91;;;4.12;100.00
27202;BME280;14717;46.924;15.474;2023-11-22T08:20:09;98123.59;;;3.86;100.00
27202;BME280;14717;46.924;15.474;2023-11-22T08:22:41;98125.06;;;4.05;100.00
27202;BME280;14717;46.924;15.474;2023-11-22T08:25:08;98120.94;;;4.19;100.00
27202;BME280;14717;46.924;15.474;2023-11-22T08:27:33;98125.59;;;4.35;100.00
27202;BME280;14717;46.924;15.474;2023-11-22T08:29:59;98133.22;;;4.65;100.00
27202;BME280;14717;46.924;15.474;2023-11-22T08:32:27;98129.75;;;4.54;100.00
27202;BME280;14717;46.924;15.474;2023-11-22T08:34:56;98132.22;;;4.71;100.00
27202;BME280;14717;46.924;15.474;2023-11-22T08:37:21;98138.16;;;5.01;100.00
27202;BME280;14717;46.924;15.474;2023-11-22T08:39:47;98137.66;;;5.04;100.00
27202;BME280;14717;46.924;15.474;2023-11-22T08:42:12;98141.84;;;5.28;100.00
27202;BME280;14717;46.924;15.474;2023-11-22T08:44:39;98138.41;;;5.37;100.00
27202;BME280;14717;46.924;15.474;2023-11-22T08:47:04;98136.78;;;5.36;100.00
27202;BME280;14717;46.924;15.474;2023-11-22T08:49:30;98138.81;;;5.46;100.00
27202;BME280;14717;46.924;15.474;2023-11-22T08:51:58;98149.63;;;5.57;100.00
27202;BME280;14717;46.924;15.474;2023-11-22T08:54:28;98153.41;;;5.72;100.00
27202;BME280;14717;46.924;15.474;2023-11-22T08:56:54;98146.09;;;5.78;100.00
27202;BME280;14717;46.924;15.474;2023-11-22T08:59:22;98151.84;;;5.76;100.00
27202;BME280;14717;46.924;15.474;2023-11-22T09:01:48;98167.34;;;5.87;100.00
27202;BME280;14717;46.924;15.474;2023-11-22T09:04:13;98161.03;;;5.87;100.00
27202;BME280;14717;46.924;15.474;2023-11-22T09:06:39;98159.25;;;5.97;100.00
27202;BME280;14717;46.924;15.474;2023-11-22T09:09:04;98167.56;;;6.07;100.00
27202;BME280;14717;46.924;15.474;2023-11-22T09:11:30;98162.09;;;6.07;100.00
27202;BME280;14717;46.924;15.474;2023-11-22T09:13:56;98163.69;;;6.29;100.00
27202;BME280;14717;46.924;15.474;2023-11-22T09:16:22;98153.72;;;6.44;100.00
27202;BME280;14717;46.924;15.474;2023-11-22T09:18:50;98159.88;;;6.56;100.00
27202;BME280;14717;46.924;15.474;2023-11-22T09:21:16;98166.63;;;6.75;100.00
27202;BME280;14717;46.924;15.474;2023-11-22T09:23:45;98164.19;;;6.78;100.00
27202;BME280;14717;46.924;15.474;2023-11-22T09:26:10;98152.50;;;6.93;100.00
27202;BME280;14717;46.924;15.474;2023-11-22T09:28:36;98160.63;;;6.78;100.00
27202;BME280;14717;46.924;15.474;2023-11-22T09:31:01;98156.13;;;6.98;100.00
27202;BME280;14717;46.924;15.474;2023-11-22T09:33:31;98154.69;;;6.91;100.00
27202;BME280;14717;46.924;15.474;2023-11-22T09:35:57;98150.94;;;7.02;100.00
27202;BME280;14717;46.924;15.474;2023-11-22T09:38:23;98161.19;;;7.16;100.00
27202;BME280;14717;46.924;15.474;2023-11-22T09:40:49;98150.06;;;7.37;100.00
27202;BME280;14717;46.924;15.474;2023-11-22T09:43:18;98161.16;;;7.52;100.00
27202;BME280;14717;46.924;15.474;2023-11-22T09:45:45;98160.16;;;7.73;100.00
27202;BME280;14717;46.924;15.474;2023-11-22T09:48:18;98158.59;;;7.92;100.00
27202;BME280;14717;46.924;15.474;2023-11-22T09:56:22;98154.28;;;8.05;100.00
27202;BME280;14717;46.924;15.474;2023-11-22T09:58:52;98159.56;;;8.12;100.00
27202;BME280;14717;46.924;15.474;2023-11-22T10:01:20;98148.06;;;8.30;100.00
27202;BME280;14717;46.924;15.474;2023-11-22T10:03:47;98159.34;;;8.38;100.00
27202;BME280;14717;46.924;15.474;2023-11-22T10:06:12;98162.41;;;8.51;100.00
27202;BME280;14717;46.924;15.474;2023-11-22T10:08:40;98167.66;;;8.63;100.00
27202;BME280;14717;46.924;15.474;2023-11-22T10:11:06;98161.91;;;8.69;100.00
27202;BME280;14717;46.924;15.474;2023-11-22T10:13:32;98165.19;;;8.76;100.00
27202;BME280;14717;46.924;15.474;2023-11-22T10:16:09;98179.53;;;8.83;100.00
27202;BME280;14717;46.924;15.474;2023-11-22T10:18:39;98174.00;;;8.83;100.00
27202;BME280;14717;46.924;15.474;2023-11-22T10:21:18;98183.69;;;8.91;100.00
27202;BME280;14717;46.924;15.474;2023-11-22T10:23:44;98175.41;;;9.00;100.00
27202;BME280;14717;46.924;15.474;2023-11-22T10:26:09;98180.34;;;8.93;100.00
27202;BME280;14717;46.924;15.474;2023-11-22T10:28:35;98179.25;;;9.04;100.00
27202;BME280;14717;46.924;15.474;2023-11-22T10:31:00;98183.97;;;9.19;100.00
27202;BME280;14717;46.924;15.474;2023-11-22T10:33:25;98195.25;;;9.32;100.00
27202;BME280;14717;46.924;15.474;2023-11-22T10:35:51;98200.22;;;9.30;100.00
27202;BME280;14717;46.924;15.474;2023-11-22T10:38:18;98198.81;;;9.08;100.00
27202;BME280;14717;46.924;15.474;2023-11-22T10:40:45;98196.88;;;9.03;100.00
27202;BME280;14717;46.924;15.474;2023-11-22T10:43:21;98206.28;;;9.27;100.00
27202;BME280;14717;46.924;15.474;2023-11-22T10:45:51;98206.53;;;9.35;100.00
27202;BME280;14717;46.924;15.474;2023-11-22T10:48:18;98210.66;;;9.58;100.00
27202;BME280;14717;46.924;15.474;2023-11-22T10:50:47;98216.72;;;9.75;100.00
27202;BME280;14717;46.924;15.474;2023-11-22T10:53:12;98212.50;;;9.92;100.00
27202;BME280;14717;46.924;15.474;2023-11-22T10:55:42;98215.03;;;9.83;100.00
27202;BME280;14717;46.924;15.474;2023-11-22T10:58:10;98218.91;;;9.58;100.00
27202;BME280;14717;46.924;15.474;2023-11-22T11:00:40;98217.78;;;9.83;100.00
27202;BME280;14717;46.924;15.474;2023-11-22T11:03:08;98220.53;;;9.78;100.00
27202;BME280;14717;46.924;15.474;2023-11-22T11:05:41;98228.31;;;9.62;100.00
27202;BME280;14717;46.924;15.474;2023-11-22T11:08:14;98228.25;;;9.91;99.46
27202;BME280;14717;46.924;15.474;2023-11-22T11:10:44;98228.00;;;9.98;98.77
27202;BME280;14717;46.924;15.474;2023-11-22T11:13:13;98220.50;;;10.08;98.14
27202;BME280;14717;46.924;15.474;2023-11-22T11:15:40;98213.28;;;10.22;99.59
27202;BME280;14717;46.924;15.474;2023-11-22T11:18:13;98218.78;;;10.32;97.66
27202;BME280;14717;46.924;15.474;2023-11-22T11:23:24;98229.31;;;10.10;94.95
27202;BME280;14717;46.924;15.474;2023-11-22T11:25:59;98227.94;;;10.18;97.30
27202;BME280;14717;46.924;15.474;2023-11-22T11:28:45;98233.34;;;10.42;95.19
27202;BME280;14717;46.924;15.474;2023-11-22T11:31:15;98233.63;;;10.46;94.97
27202;BME280;14717;46.924;15.474;2023-11-22T11:38:56;98229.56;;;10.18;94.71
27202;BME280;14717;46.924;15.474;2023-11-22T11:41:27;98229.28;;;10.25;95.57
27202;BME280;14717;46.924;15.474;2023-11-22T11:43:53;98237.28;;;10.21;93.87
27202;BME280;14717;46.924;15.474;2023-11-22T11:46:20;98226.41;;;10.50;95.99
27202;BME280;14717;46.924;15.474;2023-11-22T11:48:48;98222.44;;;10.70;92.64
27202;BME280;14717;46.924;15.474;2023-11-22T11:51:15;98229.63;;;10.71;91.85
27202;BME280;14717;46.924;15.474;2023-11-22T11:53:41;98227.44;;;10.68;91.35
27202;BME280;14717;46.924;15.474;2023-11-22T11:56:07;98222.34;;;10.85;89.87
27202;BME280;14717;46.924;15.474;2023-11-22T11:58:32;98231.72;;;10.89;91.02
27202;BME280;14717;46.924;15.474;2023-11-22T12:00:58;98225.88;;;10.96;90.39
27202;BME280;14717;46.924;15.474;2023-11-22T12:03:24;98222.34;;;10.85;88.76
27202;BME280;14717;46.924;15.474;2023-11-22T12:05:49;98218.63;;;11.04;89.01
27202;BME280;14717;46.924;15.474;2023-11-22T12:08:15;98222.28;;;10.95;89.21
27202;BME280;14717;46.924;15.474;2023-11-22T12:10:44;98212.19;;;11.14;88.74
27202;BME280;14717;46.924;15.474;2023-11-22T12:13:22;98222.53;;;10.99;89.58
27202;BME280;14717;46.924;15.474;2023-11-22T12:15:47;98224.28;;;10.85;87.30
27202;BME280;14717;46.924;15.474;2023-11-22T12:18:13;98222.63;;;10.84;87.36
27202;BME280;14717;46.924;15.474;2023-11-22T12:20:39;98207.81;;;11.08;88.96
27202;BME280;14717;46.924;15.474;2023-11-22T12:23:04;98215.75;;;11.19;87.97
27202;BME280;14717;46.924;15.474;2023-11-22T12:25:30;98213.78;;;11.25;87.79
27202;BME280;14717;46.924;15.474;2023-11-22T12:27:56;98223.03;;;11.05;84.93
27202;BME280;14717;46.924;15.474;2023-11-22T12:32:55;98211.66;;;11.12;85.31
27202;BME280;14717;46.924;15.474;2023-11-22T12:35:22;98216.56;;;11.20;84.61
27202;BME280;14717;46.924;15.474;2023-11-22T12:37:48;98211.28;;;11.23;85.92
27202;BME280;14717;46.924;15.474;2023-11-22T12:40:14;98211.00;;;11.25;85.04
27202;BME280;14717;46.924;15.474;2023-11-22T12:42:50;98215.50;;;11.16;83.86
27202;BME280;14717;46.924;15.474;2023-11-22T12:45:23;98221.53;;;11.23;84.85
27202;BME280;14717;46.924;15.474;2023-11-22T12:47:50;98224.06;;;11.19;82.14
27202;BME280;14717;46.924;15.474;2023-11-22T12:53:14;98235.44;;;11.13;82.99
27202;BME280;14717;46.924;15.474;2023-11-22T12:55:52;98231.09;;;11.35;82.49
27202;BME280;14717;46.924;15.474;2023-11-22T12:58:27;98227.31;;;11.26;83.35
27202;BME280;14717;46.924;15.474;2023-11-22T13:00:54;98230.03;;;11.31;81.21
27202;BME280;14717;46.924;15.474;2023-11-22T13:03:24;98232.59;;;11.23;78.26
27202;BME280;14717;46.924;15.474;2023-11-22T13:05:50;98223.16;;;11.24;80.88